sensor_id;sensor_type;location;lat;lon;timestamp;pressure;altitude;pressure_sealevel;temperature;humidity
39301;BME280;25019;42.626;23.380;2023-04-01T00:00:18;93562.09;;;10.43;66.50
39301;BME280;25019;42.626;23.380;2023-04-01T00:02:44;93513.53;;;9.81;67.77
39301;BME280;25019;42.626;23.380;2023-04-01T00:05:10;93503.66;;;9.40;69.73
39301;BME280;25019;42.626;23.380;2023-04-01T00:07:37;93568.13;;;9.66;70.96
39301;BME280;25019;42.626;23.380;2023-04-01T00:10:07;93574.47;;;9.55;71.60
39301;BME280;25019;42.626;23.380;2023-04-01T00:12:34;93563.03;;;9.44;71.71
39301;BME280;25019;42.626;23.380;2023-04-01T00:15:01;93569.16;;;9.50;72.22
39301;BME280;25019;42.626;23.380;2023-04-01T00:17:26;93566.19;;;9.36;72.46
39301;BME280;25019;42.626;23.380;2023-04-01T00:19:55;93521.38;;;9.13;72.12
39301;BME280;25019;42.626;23.380;2023-04-01T00:22:21;93513.44;;;9.13;72.42
39301;BME280;25019;42.626;23.380;2023-04-01T00:24:47;93575.53;;;9.54;71.92
39301;BME280;25019;42.626;23.380;2023-04-01T00:27:13;93563.81;;;9.34;72.78
39301;BME280;25019;42.626;23.380;2023-04-01T00:29:43;93573.13;;;9.47;72.78
39301;BME280;25019;42.626;23.380;2023-04-01T00:32:09;93518.97;;;9.12;72.60
39301;BME280;25019;42.626;23.380;2023-04-01T00:34:34;93565.94;;;9.32;73.30
39301;BME280;25019;42.626;23.380;2023-04-01T00:37:00;93551.59;;;9.23;73.59
39301;BME280;25019;42.626;23.380;2023-04-01T00:39:29;93546.19;;;8.97;74.79
39301;BME280;25019;42.626;23.380;2023-04-01T00:41:54;93563.25;;;9.22;74.62
39301;BME280;25019;42.626;23.380;2023-04-01T00:44:30;93544.13;;;9.04;75.18
39301;BME280;25019;42.626;23.380;2023-04-01T00:46:56;93538.03;;;9.09;75.31
39301;BME280;25019;42.626;23.380;2023-04-01T00:49:26;93542.56;;;9.13;75.29
39301;BME280;25019;42.626;23.380;2023-04-01T00:51:55;93463.25;;;8.76;74.89
39301;BME280;25019;42.626;23.380;2023-04-01T00:54:22;93523.00;;;9.30;74.45
39301;BME280;25019;42.626;23.380;2023-04-01T00:56:52;93529.66;;;9.43;74.41
39301;BME280;25019;42.626;23.380;2023-04-01T00:59:33;93422.50;;;8.77;74.60
39301;BME280;25019;42.626;23.380;2023-04-01T01:02:01;93535.22;;;9.52;74.93
39301;BME280;25019;42.626;23.380;2023-04-01T01:04:30;93522.75;;;9.37;75.03
39301;BME280;25019;42.626;23.380;2023-04-01T01:10:17;93524.63;;;9.41;74.58
39301;BME280;25019;42.626;23.380;2023-04-01T01:15:32;93417.44;;;8.75;75.08
39301;BME280;25019;42.626;23.380;2023-04-01T01:18:03;93496.50;;;9.35;74.22
39301;BME280;25019;42.626;23.380;2023-04-01T01:23:40;93494.94;;;9.39;72.93
39301;BME280;25019;42.626;23.380;2023-04-01T01:35:13;93488.84;;;9.65;70.60
39301;BME280;25019;42.626;23.380;2023-04-01T01:37:43;93483.56;;;9.70;70.39
39301;BME280;25019;42.626;23.380;2023-04-01T01:40:12;93474.53;;;9.71;70.21
39301;BME280;25019;42.626;23.380;2023-04-01T01:42:43;93463.69;;;9.72;69.92
39301;BME280;25019;42.626;23.380;2023-04-01T01:45:12;93464.22;;;9.74;69.62
39301;BME280;25019;42.626;23.380;2023-04-01T01:47:41;93475.63;;;9.80;68.31
39301;BME280;25019;42.626;23.380;2023-04-01T01:50:08;93454.41;;;9.80;67.41
39301;BME280;25019;42.626;23.380;2023-04-01T01:52:35;93456.25;;;9.85;67.60
39301;BME280;25019;42.626;23.380;2023-04-01T01:55:00;93375.44;;;9.31;67.49
39301;BME280;25019;42.626;23.380;2023-04-01T01:57:37;93458.38;;;9.93;66.79
39301;BME280;25019;42.626;23.380;2023-04-01T02:00:10;93450.94;;;9.90;66.34
39301;BME280;25019;42.626;23.380;2023-04-01T02:02:44;93435.56;;;9.87;66.45
39301;BME280;25019;42.626;23.380;2023-04-01T02:05:16;93448.53;;;9.99;66.28
39301;BME280;25019;42.626;23.380;2023-04-01T02:07:46;93448.53;;;10.09;65.86
39301;BME280;25019;42.626;23.380;2023-04-01T02:10:14;93439.22;;;10.12;65.18
39301;BME280;25019;42.626;23.380;2023-04-01T02:12:42;93426.78;;;10.12;65.22
39301;BME280;25019;42.626;23.380;2023-04-01T02:15:12;93378.03;;;9.87;64.77
39301;BME280;25019;42.626;23.380;2023-04-01T02:17:43;93432.31;;;10.31;63.64
39301;BME280;25019;42.626;23.380;2023-04-01T02:20:19;93348.88;;;9.82;63.33
39301;BME280;25019;42.626;23.380;2023-04-01T02:22:50;93331.38;;;9.66;63.82
39301;BME280;25019;42.626;23.380;2023-04-01T02:25:29;93437.88;;;10.40;64.24
39301;BME280;25019;42.626;23.380;2023-04-01T02:27:58;93422.47;;;10.42;64.27
39301;BME280;25019;42.626;23.380;2023-04-01T02:30:27;93415.28;;;10.43;63.99
39301;BME280;25019;42.626;23.380;2023-04-01T02:32:55;93365.22;;;10.10;63.95
39301;BME280;25019;42.626;23.380;2023-04-01T02:35:22;93419.56;;;10.39;64.59
39301;BME280;25019;42.626;23.380;2023-04-01T02:37:49;93418.22;;;10.41;64.23
39301;BME280;25019;42.626;23.380;2023-04-01T02:40:16;93420.88;;;10.41;63.35
39301;BME280;25019;42.626;23.380;2023-04-01T02:42:42;93422.19;;;10.44;63.31
39301;BME280;25019;42.626;23.380;2023-04-01T02:45:09;93411.06;;;10.42;63.38
39301;BME280;25019;42.626;23.380;2023-04-01T02:47:35;93417.13;;;10.53;62.95
39301;BME280;25019;42.626;23.380;2023-04-01T02:50:01;93310.41;;;9.80;62.73
39301;BME280;25019;42.626;23.380;2023-04-01T02:52:28;93427.72;;;10.58;62.43
39301;BME280;25019;42.626;23.380;2023-04-01T02:54:56;93446.28;;;10.63;62.30
39301;BME280;25019;42.626;23.380;2023-04-01T02:57:23;93445.22;;;10.64;62.44
39301;BME280;25019;42.626;23.380;2023-04-01T02:59:48;93442.56;;;10.64;62.38
39301;BME280;25019;42.626;23.380;2023-04-01T03:02:15;93422.94;;;10.60;61.98
39301;BME280;25019;42.626;23.380;2023-04-01T03:04:41;93430.88;;;10.70;61.22
39301;BME280;25019;42.626;23.380;2023-04-01T03:07:07;93456.59;;;10.80;60.94
39301;BME280;25019;42.626;23.380;2023-04-01T03:09:38;93456.03;;;10.83;60.71
39301;BME280;25019;42.626;23.380;2023-04-01T03:12:05;93457.63;;;10.84;60.95
39301;BME280;25019;42.626;23.380;2023-04-01T03:14:38;93462.94;;;10.84;60.67
39301;BME280;25019;42.626;23.380;2023-04-01T03:17:04;93456.28;;;10.82;60.82
39301;BME280;25019;42.626;23.380;2023-04-01T03:19:31;93368.13;;;10.14;61.26
39301;BME280;25019;42.626;23.380;2023-04-01T03:21:58;93419.00;;;10.52;60.93
39301;BME280;25019;42.626;23.380;2023-04-01T03:24:24;93402.56;;;10.45;60.99
39301;BME280;25019;42.626;23.380;2023-04-01T03:26:50;93392.22;;;10.43;61.11
39301;BME280;25019;42.626;23.380;2023-04-01T03:29:17;93454.44;;;10.82;59.22
39301;BME280;25019;42.626;23.380;2023-04-01T03:31:43;93446.69;;;10.91;55.22
39301;BME280;25019;42.626;23.380;2023-04-01T03:34:09;93435.03;;;11.32;51.61
39301;BME280;25019;42.626;23.380;2023-04-01T03:36:35;93437.97;;;11.70;50.91
39301;BME280;25019;42.626;23.380;2023-04-01T03:39:02;93437.34;;;11.78;52.30
39301;BME280;25019;42.626;23.380;2023-04-01T03:41:37;93445.81;;;11.86;53.81
39301;BME280;25019;42.626;23.380;2023-04-01T03:44:04;93350.38;;;11.15;55.19
39301;BME280;25019;42.626;23.380;2023-04-01T03:46:30;93433.03;;;11.53;56.74
39301;BME280;25019;42.626;23.380;2023-04-01T03:48:55;93368.19;;;10.69;61.28
39301;BME280;25019;42.626;23.380;2023-04-01T03:51:21;93380.25;;;10.35;64.26
39301;BME280;25019;42.626;23.380;2023-04-01T03:53:48;93442.03;;;10.62;65.84
39301;BME280;25019;42.626;23.380;2023-04-01T03:56:14;93416.09;;;10.38;65.57
39301;BME280;25019;42.626;23.380;2023-04-01T03:58:40;93402.84;;;10.33;65.82
39301;BME280;25019;42.626;23.380;2023-04-01T04:01:18;93402.53;;;10.34;65.66
39301;BME280;25019;42.626;23.380;2023-04-01T04:03:46;93388.56;;;10.13;67.46
39301;BME280;25019;42.626;23.380;2023-04-01T04:06:14;93370.81;;;10.03;67.75
39301;BME280;25019;42.626;23.380;2023-04-01T04:08:40;93374.00;;;10.00;68.14
39301;BME280;25019;42.626;23.380;2023-04-01T04:11:06;93362.13;;;9.82;68.25
39301;BME280;25019;42.626;23.380;2023-04-01T04:13:33;93367.66;;;9.91;68.07
39301;BME280;25019;42.626;23.380;2023-04-01T04:16:00;93294.59;;;9.33;67.63
39301;BME280;25019;42.626;23.380;2023-04-01T04:18:27;93360.78;;;9.90;67.85
39301;BME280;25019;42.626;23.380;2023-04-01T04:20:53;93349.69;;;9.67;68.23
39301;BME280;25019;42.626;23.380;2023-04-01T04:23:19;93284.81;;;9.18;69.17
39301;BME280;25019;42.626;23.380;2023-04-01T04:26:00;93296.44;;;9.38;68.58
39301;BME280;25019;42.626;23.380;2023-04-01T04:28:27;93349.16;;;9.60;69.22
39301;BME280;25019;42.626;23.380;2023-04-01T04:30:55;93261.50;;;9.25;68.00
39301;BME280;25019;42.626;23.380;2023-04-01T04:33:22;93316.53;;;9.70;67.55
39301;BME280;25019;42.626;23.380;2023-04-01T04:35:49;93321.28;;;9.83;67.02
39301;BME280;25019;42.626;23.380;2023-04-01T04:38:15;93322.88;;;9.89;66.10
39301;BME280;25019;42.626;23.380;2023-04-01T04:40:41;93314.34;;;9.93;65.13
39301;BME280;25019;42.626;23.380;2023-04-01T04:43:10;93249.25;;;9.55;65.37
39301;BME280;25019;42.626;23.380;2023-04-01T04:45:36;93299.75;;;10.00;65.42
39301;BME280;25019;42.626;23.380;2023-04-01T04:48:02;93274.63;;;9.82;65.30
39301;BME280;25019;42.626;23.380;2023-04-01T04:50:29;93259.47;;;9.88;66.05
39301;BME280;25019;42.626;23.380;2023-04-01T04:52:54;93258.94;;;9.91;65.29
39301;BME280;25019;42.626;23.380;2023-04-01T04:55:21;93273.19;;;10.05;63.72
39301;BME280;25019;42.626;23.380;2023-04-01T04:57:51;93251.41;;;10.14;62.23
39301;BME280;25019;42.626;23.380;2023-04-01T05:00:17;93263.47;;;10.41;59.70
39301;BME280;25019;42.626;23.380;2023-04-01T05:02:56;93249.88;;;10.53;57.71
39301;BME280;25019;42.626;23.380;2023-04-01T05:05:22;93267.00;;;10.71;58.16
39301;BME280;25019;42.626;23.380;2023-04-01T05:07:48;93270.47;;;10.71;58.94
39301;BME280;25019;42.626;23.380;2023-04-01T05:10:14;93258.56;;;10.63;58.68
39301;BME280;25019;42.626;23.380;2023-04-01T05:12:40;93195.81;;;10.38;57.96
39301;BME280;25019;42.626;23.380;2023-04-01T05:15:08;93277.25;;;10.88;58.82
39301;BME280;25019;42.626;23.380;2023-04-01T05:17:34;93268.00;;;10.80;60.86
39301;BME280;25019;42.626;23.380;2023-04-01T05:20:01;93179.84;;;10.03;62.68
39301;BME280;25019;42.626;23.380;2023-04-01T05:22:28;93256.78;;;10.48;63.23
39301;BME280;25019;42.626;23.380;2023-04-01T05:24:53;93260.28;;;10.44;63.47
39301;BME280;25019;42.626;23.380;2023-04-01T05:27:20;93252.84;;;10.46;63.54
39301;BME280;25019;42.626;23.380;2023-04-01T05:29:45;93180.38;;;10.00;63.29
39301;BME280;25019;42.626;23.380;2023-04-01T05:32:31;93242.72;;;10.53;63.63
39301;BME280;25019;42.626;23.380;2023-04-01T05:34:57;93250.34;;;10.60;64.29
39301;BME280;25019;42.626;23.380;2023-04-01T05:37:23;93246.59;;;10.66;64.56
39301;BME280;25019;42.626;23.380;2023-04-01T05:39:48;93236.78;;;10.61;64.49
39301;BME280;25019;42.626;23.380;2023-04-01T05:42:14;93218.31;;;10.51;65.07
39301;BME280;25019;42.626;23.380;2023-04-01T05:44:41;93236.75;;;10.67;65.09
39301;BME280;25019;42.626;23.380;2023-04-01T05:47:06;93249.44;;;10.80;64.98
39301;BME280;25019;42.626;23.380;2023-04-01T05:49:33;93243.06;;;10.76;64.56
39301;BME280;25019;42.626;23.380;2023-04-01T05:51:59;93189.97;;;10.36;64.88
39301;BME280;25019;42.626;23.380;2023-04-01T05:54:26;93239.03;;;10.84;64.59
39301;BME280;25019;42.626;23.380;2023-04-01T05:56:52;93241.97;;;10.82;64.83
39301;BME280;25019;42.626;23.380;2023-04-01T05:59:18;93176.56;;;10.57;64.94
39301;BME280;25019;42.626;23.380;2023-04-01T06:01:45;93216.84;;;10.99;64.17
39301;BME280;25019;42.626;23.380;2023-04-01T06:04:14;93208.41;;;11.21;63.06
39301;BME280;25019;42.626;23.380;2023-04-01T06:06:40;93215.63;;;11.45;61.93
39301;BME280;25019;42.626;23.380;2023-04-01T06:09:17;93218.84;;;11.66;61.44
39301;BME280;25019;42.626;23.380;2023-04-01T06:26:00;93209.50;;;12.69;57.17
39301;BME280;25019;42.626;23.380;2023-04-01T06:28:56;93214.19;;;12.78;56.62
39301;BME280;25019;42.626;23.380;2023-04-01T06:54:14;93189.28;;;13.01;56.33
39301;BME280;25019;42.626;23.380;2023-04-01T06:57:13;93195.03;;;13.09;56.35
39301;BME280;25019;42.626;23.380;2023-04-01T06:59:42;93178.22;;;12.94;56.69
39301;BME280;25019;42.626;23.380;2023-04-01T07:04:59;93182.63;;;12.85;57.95
39301;BME280;25019;42.626;23.380;2023-04-01T07:07:39;93135.84;;;12.46;58.56
39301;BME280;25019;42.626;23.380;2023-04-01T07:10:14;93168.78;;;12.83;57.87
39301;BME280;25019;42.626;23.380;2023-04-01T07:13:04;93110.81;;;12.47;57.67
39301;BME280;25019;42.626;23.380;2023-04-01T07:16:03;93169.94;;;12.96;57.36
39301;BME280;25019;42.626;23.380;2023-04-01T07:18:42;93094.75;;;12.52;57.82
39301;BME280;25019;42.626;23.380;2023-04-01T07:21:25;93144.63;;;12.79;58.30
39301;BME280;25019;42.626;23.380;2023-04-01T07:23:57;93126.81;;;12.61;59.29
39301;BME280;25019;42.626;23.380;2023-04-01T07:26:38;93143.09;;;12.59;60.34
39301;BME280;25019;42.626;23.380;2023-04-01T07:29:12;93103.44;;;12.24;60.99
39301;BME280;25019;42.626;23.380;2023-04-01T07:34:19;93164.72;;;13.04;60.72
39301;BME280;25019;42.626;23.380;2023-04-01T07:40:04;93161.16;;;13.09;61.67
39301;BME280;25019;42.626;23.380;2023-04-01T07:42:41;93166.16;;;12.97;62.59
39301;BME280;25019;42.626;23.380;2023-04-01T07:45:24;93151.44;;;12.85;62.33
39301;BME280;25019;42.626;23.380;2023-04-01T07:51:15;93158.41;;;12.67;63.60
39301;BME280;25019;42.626;23.380;2023-04-01T07:53:56;93147.47;;;12.83;63.40
39301;BME280;25019;42.626;23.380;2023-04-01T07:56:29;93153.13;;;12.81;63.01
39301;BME280;25019;42.626;23.380;2023-04-01T07:59:09;93162.09;;;12.85;63.24
39301;BME280;25019;42.626;23.380;2023-04-01T08:05:14;93091.09;;;12.48;63.25
39301;BME280;25019;42.626;23.380;2023-04-01T08:07:51;93134.34;;;12.72;63.69
39301;BME280;25019;42.626;23.380;2023-04-01T08:10:52;93142.47;;;12.81;63.89
39301;BME280;25019;42.626;23.380;2023-04-01T08:22:46;93099.38;;;13.07;62.20
39301;BME280;25019;42.626;23.380;2023-04-01T08:25:32;93121.31;;;13.46;61.88
39301;BME280;25019;42.626;23.380;2023-04-01T08:30:40;93088.28;;;13.70;60.84
39301;BME280;25019;42.626;23.380;2023-04-01T08:33:25;93098.56;;;13.76;59.94
39301;BME280;25019;42.626;23.380;2023-04-01T08:56:47;93001.84;;;14.16;58.00
39301;BME280;25019;42.626;23.380;2023-04-01T09:02:54;93042.50;;;14.90;55.79
39301;BME280;25019;42.626;23.380;2023-04-01T09:05:36;93038.31;;;15.16;54.63
39301;BME280;25019;42.626;23.380;2023-04-01T09:11:12;93030.78;;;15.18;51.95
39301;BME280;25019;42.626;23.380;2023-04-01T09:20:32;93033.69;;;15.56;50.99
39301;BME280;25019;42.626;23.380;2023-04-01T09:37:19;93017.81;;;15.78;50.08
39301;BME280;25019;42.626;23.380;2023-04-01T09:40:15;93012.94;;;15.71;49.92
39301;BME280;25019;42.626;23.380;2023-04-01T09:45:37;93006.03;;;15.96;49.27
39301;BME280;25019;42.626;23.380;2023-04-01T09:48:30;93004.44;;;16.22;48.95
39301;BME280;25019;42.626;23.380;2023-04-01T09:51:17;93007.06;;;16.39;48.67
39301;BME280;25019;42.626;23.380;2023-04-01T09:54:21;92995.72;;;16.42;48.56
39301;BME280;25019;42.626;23.380;2023-04-01T10:34:05;92959.22;;;15.67;50.81
39301;BME280;25019;42.626;23.380;2023-04-01T10:36:47;92952.97;;;15.72;51.12
39301;BME280;25019;42.626;23.380;2023-04-01T10:42:11;92936.09;;;15.63;51.75
39301;BME280;25019;42.626;23.380;2023-04-01T10:45:17;92933.41;;;15.71;52.28
39301;BME280;25019;42.626;23.380;2023-04-01T10:53:37;92891.88;;;14.95;52.73
39301;BME280;25019;42.626;23.380;2023-04-01T10:56:39;92922.56;;;15.33;51.35
39301;BME280;25019;42.626;23.380;2023-04-01T11:00:02;92919.72;;;15.11;52.67
39301;BME280;25019;42.626;23.380;2023-04-01T11:06:11;92908.56;;;15.45;48.75
39301;BME280;25019;42.626;23.380;2023-04-01T11:19:55;92893.78;;;15.38;52.11
39301;BME280;25019;42.626;23.380;2023-04-01T11:23:08;92892.03;;;15.34;52.58
39301;BME280;25019;42.626;23.380;2023-04-01T11:29:47;92891.88;;;15.65;45.33
39301;BME280;25019;42.626;23.380;2023-04-01T11:44:26;93024.41;;;15.80;48.27
39301;BME280;25019;42.626;23.380;2023-04-01T11:58:21;93130.03;;;12.77;76.00
39301;BME280;25019;42.626;23.380;2023-04-01T12:06:25;93172.38;;;11.09;93.50
39301;BME280;25019;42.626;23.380;2023-04-01T12:14:11;93156.69;;;10.14;100.00
39301;BME280;25019;42.626;23.380;2023-04-01T12:16:59;93141.41;;;9.96;100.00
39301;BME280;25019;42.626;23.380;2023-04-01T12:19:45;93146.47;;;9.92;100.00
39301;BME280;25019;42.626;23.380;2023-04-01T12:27:53;93140.53;;;10.05;100.00
39301;BME280;25019;42.626;23.380;2023-04-01T12:30:42;93134.84;;;10.23;100.00
39301;BME280;25019;42.626;23.380;2023-04-01T12:36:41;93059.41;;;10.34;100.00
39301;BME280;25019;42.626;23.380;2023-04-01T12:47:50;93154.56;;;10.16;100.00
39301;BME280;25019;42.626;23.380;2023-04-01T12:56:02;93154.25;;;10.23;100.00
39301;BME280;25019;42.626;23.380;2023-04-01T12:58:49;93138.66;;;10.11;100.00
39301;BME280;25019;42.626;23.380;2023-04-01T13:01:30;93137.06;;;10.15;100.00
39301;BME280;25019;42.626;23.380;2023-04-01T13:17:36;93056.81;;;10.29;100.00
39301;BME280;25019;42.626;23.380;2023-04-01T13:20:15;93065.78;;;10.92;100.00
39301;BME280;25019;42.626;23.380;2023-04-01T13:28:29;93042.00;;;12.54;100.00
39301;BME280;25019;42.626;23.380;2023-04-01T13:31:07;93032.63;;;12.56;100.00
39301;BME280;25019;42.626;23.380;2023-04-01T13:33:54;93033.91;;;13.01;100.00
39301;BME280;25019;42.626;23.380;2023-04-01T13:36:40;93030.53;;;13.51;100.00
39301;BME280;25019;42.626;23.380;2023-04-01T13:42:28;93021.09;;;14.04;86.35
39301;BME280;25019;42.626;23.380;2023-04-01T13:56:06;92994.34;;;15.66;69.43
39301;BME280;25019;42.626;23.380;2023-04-01T14:01:39;93000.81;;;15.73;68.06
39301;BME280;25019;42.626;23.380;2023-04-01T14:15:37;93000.84;;;13.67;89.64
39301;BME280;25019;42.626;23.380;2023-04-01T14:20:37;92992.13;;;13.38;92.66
39301;BME280;25019;42.626;23.380;2023-04-01T14:23:22;92994.06;;;12.82;95.44
39301;BME280;25019;42.626;23.380;2023-04-01T14:40:19;92973.34;;;12.51;98.75
39301;BME280;25019;42.626;23.380;2023-04-01T14:43:10;92903.59;;;12.07;98.31
39301;BME280;25019;42.626;23.380;2023-04-01T14:46:14;92963.28;;;12.48;97.24
39301;BME280;25019;42.626;23.380;2023-04-01T14:48:56;92963.06;;;12.58;96.97
39301;BME280;25019;42.626;23.380;2023-04-01T14:51:33;92937.72;;;12.33;98.20
39301;BME280;25019;42.626;23.380;2023-04-01T14:54:02;92974.81;;;12.85;96.38
39301;BME280;25019;42.626;23.380;2023-04-01T14:56:43;92954.28;;;12.99;93.46
39301;BME280;25019;42.626;23.380;2023-04-01T15:23:35;92991.69;;;12.94;93.91
39301;BME280;25019;42.626;23.380;2023-04-01T15:31:47;92977.88;;;12.50;97.78
39301;BME280;25019;42.626;23.380;2023-04-01T15:42:45;92975.34;;;11.79;100.00
39301;BME280;25019;42.626;23.380;2023-04-01T15:45:48;92960.84;;;11.33;100.00
39301;BME280;25019;42.626;23.380;2023-04-01T16:00:13;93133.53;;;10.25;90.19
39301;BME280;25019;42.626;23.380;2023-04-01T16:08:19;93209.59;;;8.16;100.00
39301;BME280;25019;42.626;23.380;2023-04-01T16:21:01;93255.13;;;6.13;100.00
39301;BME280;25019;42.626;23.380;2023-04-01T16:23:40;93260.16;;;6.15;100.00
39301;BME280;25019;42.626;23.380;2023-04-01T16:26:18;93282.63;;;6.23;100.00
39301;BME280;25019;42.626;23.380;2023-04-01T16:29:03;93255.94;;;6.14;100.00
39301;BME280;25019;42.626;23.380;2023-04-01T16:31:43;93269.16;;;6.19;100.00
39301;BME280;25019;42.626;23.380;2023-04-01T16:34:19;93253.56;;;6.18;100.00
39301;BME280;25019;42.626;23.380;2023-04-01T16:37:20;93268.06;;;6.15;100.00
39301;BME280;25019;42.626;23.380;2023-04-01T16:39:59;93219.50;;;5.83;100.00
39301;BME280;25019;42.626;23.380;2023-04-01T16:42:51;93282.56;;;6.12;100.00
39301;BME280;25019;42.626;23.380;2023-04-01T16:45:30;93284.50;;;6.00;100.00
39301;BME280;25019;42.626;23.380;2023-04-01T16:48:12;93294.00;;;6.01;100.00
39301;BME280;25019;42.626;23.380;2023-04-01T16:56:03;93235.34;;;5.89;100.00
39301;BME280;25019;42.626;23.380;2023-04-01T16:58:40;93244.59;;;5.91;100.00
39301;BME280;25019;42.626;23.380;2023-04-01T17:01:20;93252.44;;;5.86;100.00
39301;BME280;25019;42.626;23.380;2023-04-01T17:03:54;93245.09;;;5.88;100.00
39301;BME280;25019;42.626;23.380;2023-04-01T17:06:48;93232.69;;;5.89;100.00
39301;BME280;25019;42.626;23.380;2023-04-01T17:09:49;93243.56;;;5.92;100.00
39301;BME280;25019;42.626;23.380;2023-04-01T17:15:27;93269.31;;;6.07;100.00
39301;BME280;25019;42.626;23.380;2023-04-01T17:20:42;93262.84;;;6.20;100.00
39301;BME280;25019;42.626;23.380;2023-04-01T17:23:38;93273.75;;;6.29;100.00
39301;BME280;25019;42.626;23.380;2023-04-01T17:26:35;93276.13;;;6.30;100.00
39301;BME280;25019;42.626;23.380;2023-04-01T17:29:06;93277.47;;;6.33;100.00
39301;BME280;25019;42.626;23.380;2023-04-01T17:31:46;93286.16;;;6.34;100.00
39301;BME280;25019;42.626;23.380;2023-04-01T17:40:00;93318.63;;;6.34;100.00
39301;BME280;25019;42.626;23.380;2023-04-01T17:43:04;93317.81;;;6.34;100.00
39301;BME280;25019;42.626;23.380;2023-04-01T17:45:57;93334.69;;;6.33;100.00
39301;BME280;25019;42.626;23.380;2023-04-01T17:48:38;93331.31;;;6.37;100.00
39301;BME280;25019;42.626;23.380;2023-04-01T17:51:20;93240.69;;;5.72;100.00
39301;BME280;25019;42.626;23.380;2023-04-01T17:53:59;93334.19;;;6.36;100.00
39301;BME280;25019;42.626;23.380;2023-04-01T17:59:35;93334.19;;;6.36;100.00
39301;BME280;25019;42.626;23.380;2023-04-01T18:16:29;93377.16;;;6.58;100.00
39301;BME280;25019;42.626;23.380;2023-04-01T18:19:32;93382.44;;;6.58;100.00
39301;BME280;25019;42.626;23.380;2023-04-01T18:22:23;93396.72;;;6.63;100.00
39301;BME280;25019;42.626;23.380;2023-04-01T18:27:45;93393.72;;;6.54;100.00
39301;BME280;25019;42.626;23.380;2023-04-01T18:30:25;93387.84;;;6.47;100.00
39301;BME280;25019;42.626;23.380;2023-04-01T18:36:13;93351.25;;;6.06;100.00
39301;BME280;25019;42.626;23.380;2023-04-01T18:38:49;93382.03;;;6.22;100.00
39301;BME280;25019;42.626;23.380;2023-04-01T18:41:36;93378.03;;;6.20;100.00
39301;BME280;25019;42.626;23.380;2023-04-01T18:52:22;93410.97;;;6.17;100.00
39301;BME280;25019;42.626;23.380;2023-04-01T18:58:52;93413.44;;;6.24;100.00
39301;BME280;25019;42.626;23.380;2023-04-01T19:04:28;93427.25;;;6.31;100.00
39301;BME280;25019;42.626;23.380;2023-04-01T19:06:59;93438.00;;;6.29;100.00
39301;BME280;25019;42.626;23.380;2023-04-01T19:09:44;93438.34;;;6.33;100.00
39301;BME280;25019;42.626;23.380;2023-04-01T19:15:38;93453.38;;;6.55;100.00
39301;BME280;25019;42.626;23.380;2023-04-01T19:26:42;93455.88;;;6.67;100.00
39301;BME280;25019;42.626;23.380;2023-04-01T19:29:37;93461.28;;;6.77;100.00
39301;BME280;25019;42.626;23.380;2023-04-01T19:40:51;93472.94;;;6.81;100.00
39301;BME280;25019;42.626;23.380;2023-04-01T19:43:34;93479.84;;;6.87;100.00
39301;BME280;25019;42.626;23.380;2023-04-01T19:46:38;93486.41;;;6.85;100.00
39301;BME280;25019;42.626;23.380;2023-04-01T19:54:38;93487.41;;;6.79;100.00
39301;BME280;25019;42.626;23.380;2023-04-01T19:57:27;93501.72;;;6.83;100.00
39301;BME280;25019;42.626;23.380;2023-04-01T20:00:07;93469.81;;;6.62;100.00
39301;BME280;25019;42.626;23.380;2023-04-01T20:05:38;93442.09;;;6.37;100.00
39301;BME280;25019;42.626;23.380;2023-04-01T20:08:13;93436.97;;;6.30;100.00
39301;BME280;25019;42.626;23.380;2023-04-01T20:16:43;93482.38;;;6.77;100.00
39301;BME280;25019;42.626;23.380;2023-04-01T20:19:13;93408.22;;;6.29;100.00
39301;BME280;25019;42.626;23.380;2023-04-01T20:21:49;93362.53;;;6.01;100.00
39301;BME280;25019;42.626;23.380;2023-04-01T20:24:24;93420.72;;;6.39;100.00
39301;BME280;25019;42.626;23.380;2023-04-01T20:27:23;93474.53;;;6.82;100.00
39301;BME280;25019;42.626;23.380;2023-04-01T20:38:52;93487.28;;;6.90;100.00
39301;BME280;25019;42.626;23.380;2023-04-01T20:41:23;93487.28;;;6.90;100.00
39301;BME280;25019;42.626;23.380;2023-04-01T20:44:04;93481.69;;;6.87;100.00
39301;BME280;25019;42.626;23.380;2023-04-01T20:52:16;93483.84;;;6.90;100.00
39301;BME280;25019;42.626;23.380;2023-04-01T20:58:05;93487.06;;;6.97;100.00
39301;BME280;25019;42.626;23.380;2023-04-01T21:16:26;93498.78;;;7.07;100.00
39301;BME280;25019;42.626;23.380;2023-04-01T21:58:30;93514.28;;;7.25;100.00
39301;BME280;25019;42.626;23.380;2023-04-01T22:06:54;93510.09;;;7.24;100.00
39301;BME280;25019;42.626;23.380;2023-04-01T22:09:29;93508.72;;;7.22;100.00
39301;BME280;25019;42.626;23.380;2023-04-01T22:14:46;93516.56;;;7.16;100.00
39301;BME280;25019;42.626;23.380;2023-04-01T22:20:16;93513.88;;;7.11;100.00
39301;BME280;25019;42.626;23.380;2023-04-01T22:28:11;93502.19;;;7.02;100.00
39301;BME280;25019;42.626;23.380;2023-04-01T22:30:48;93397.97;;;6.33;100.00
39301;BME280;25019;42.626;23.380;2023-04-01T22:36:02;93513.72;;;6.96;100.00
39301;BME280;25019;42.626;23.380;2023-04-01T22:43:43;93465.50;;;6.56;100.00
39301;BME280;25019;42.626;23.380;2023-04-01T22:48:41;93424.66;;;6.36;100.00
39301;BME280;25019;42.626;23.380;2023-04-01T22:51:42;93530.38;;;6.96;100.00
39301;BME280;25019;42.626;23.380;2023-04-01T22:54:18;93537.22;;;6.97;100.00
39301;BME280;25019;42.626;23.380;2023-04-01T22:56:53;93544.66;;;7.00;100.00
39301;BME280;25019;42.626;23.380;2023-04-01T22:59:46;93536.56;;;7.07;100.00
39301;BME280;25019;42.626;23.380;2023-04-01T23:02:18;93539.56;;;7.16;100.00
39301;BME280;25019;42.626;23.380;2023-04-01T23:04:51;93535.13;;;7.22;100.00
39301;BME280;25019;42.626;23.380;2023-04-01T23:07:56;93525.66;;;7.26;100.00